sensor_id;sensor_type;location;lat;lon;timestamp;pressure;altitude;pressure_sealevel;temperature;humidity
20013;BME280;10167;42.852;23.042;2023-04-26T00:00:20;93966.28;;;9.99;100.00
20013;BME280;10167;42.852;23.042;2023-04-26T00:02:51;93969.72;;;9.99;100.00
20013;BME280;10167;42.852;23.042;2023-04-26T00:05:21;93960.19;;;9.98;100.00
20013;BME280;10167;42.852;23.042;2023-04-26T00:07:50;93951.44;;;9.93;100.00
20013;BME280;10167;42.852;23.042;2023-04-26T00:10:20;93944.50;;;9.87;100.00
20013;BME280;10167;42.852;23.042;2023-04-26T00:12:49;93944.44;;;9.76;100.00
20013;BME280;10167;42.852;23.042;2023-04-26T00:15:18;93936.78;;;9.75;100.00
20013;BME280;10167;42.852;23.042;2023-04-26T00:17:47;93942.84;;;9.75;100.00
20013;BME280;10167;42.852;23.042;2023-04-26T00:20:18;93937.25;;;9.67;100.00
20013;BME280;10167;42.852;23.042;2023-04-26T00:22:48;93937.72;;;9.59;100.00
20013;BME280;10167;42.852;23.042;2023-04-26T00:25:17;93925.75;;;9.51;100.00
20013;BME280;10167;42.852;23.042;2023-04-26T00:27:46;93927.06;;;9.48;100.00
20013;BME280;10167;42.852;23.042;2023-04-26T00:30:16;93918.81;;;9.40;100.00
20013;BME280;10167;42.852;23.042;2023-04-26T00:32:46;93913.50;;;9.35;100.00
20013;BME280;10167;42.852;23.042;2023-04-26T00:35:15;93920.03;;;9.27;100.00
20013;BME280;10167;42.852;23.042;2023-04-26T00:37:46;93921.34;;;9.25;100.00
20013;BME280;10167;42.852;23.042;2023-04-26T00:40:15;93917.56;;;9.16;100.00
20013;BME280;10167;42.852;23.042;2023-04-26T00:42:44;93925.47;;;9.16;100.00
20013;BME280;10167;42.852;23.042;2023-04-26T00:45:13;93920.91;;;9.06;100.00
20013;BME280;10167;42.852;23.042;2023-04-26T00:47:43;93922.72;;;9.00;100.00
20013;BME280;10167;42.852;23.042;2023-04-26T00:50:12;93930.63;;;9.00;100.00
20013;BME280;10167;42.852;23.042;2023-04-26T00:52:42;93926.34;;;8.94;100.00
20013;BME280;10167;42.852;23.042;2023-04-26T00:55:14;93918.88;;;8.86;100.00
20013;BME280;10167;42.852;23.042;2023-04-26T00:57:44;93916.31;;;8.91;100.00
20013;BME280;10167;42.852;23.042;2023-04-26T01:00:14;93914.41;;;8.87;100.00
20013;BME280;10167;42.852;23.042;2023-04-26T01:02:44;93919.91;;;8.80;100.00
20013;BME280;10167;42.852;23.042;2023-04-26T01:05:14;93918.47;;;8.72;100.00
20013;BME280;10167;42.852;23.042;2023-04-26T01:07:44;93928.13;;;8.62;100.00
20013;BME280;10167;42.852;23.042;2023-04-26T01:10:15;93924.34;;;8.53;100.00
20013;BME280;10167;42.852;23.042;2023-04-26T01:12:46;93925.84;;;8.44;100.00
20013;BME280;10167;42.852;23.042;2023-04-26T01:15:17;93927.31;;;8.34;100.00
20013;BME280;10167;42.852;23.042;2023-04-26T01:17:49;93922.19;;;8.28;100.00
20013;BME280;10167;42.852;23.042;2023-04-26T01:20:18;93922.38;;;8.21;100.00
20013;BME280;10167;42.852;23.042;2023-04-26T01:22:50;93922.38;;;8.21;100.00
20013;BME280;10167;42.852;23.042;2023-04-26T01:25:20;93915.81;;;8.24;100.00
20013;BME280;10167;42.852;23.042;2023-04-26T01:27:49;93915.16;;;8.33;100.00
20013;BME280;10167;42.852;23.042;2023-04-26T01:30:18;93904.63;;;8.33;100.00
20013;BME280;10167;42.852;23.042;2023-04-26T01:32:47;93914.25;;;8.45;100.00
20013;BME280;10167;42.852;23.042;2023-04-26T01:35:17;93919.88;;;8.53;100.00
20013;BME280;10167;42.852;23.042;2023-04-26T01:37:47;93914.34;;;8.55;100.00
20013;BME280;10167;42.852;23.042;2023-04-26T01:40:18;93918.94;;;8.64;100.00
20013;BME280;10167;42.852;23.042;2023-04-26T01:42:47;93927.81;;;8.58;100.00
20013;BME280;10167;42.852;23.042;2023-04-26T01:45:17;93936.25;;;8.55;100.00
20013;BME280;10167;42.852;23.042;2023-04-26T01:48:05;93932.88;;;8.38;100.00
20013;BME280;10167;42.852;23.042;2023-04-26T01:50:35;93925.19;;;8.36;100.00
20013;BME280;10167;42.852;23.042;2023-04-26T01:53:05;93913.84;;;8.36;100.00
20013;BME280;10167;42.852;23.042;2023-04-26T01:55:36;93908.09;;;8.39;100.00
20013;BME280;10167;42.852;23.042;2023-04-26T01:58:05;93907.00;;;8.57;100.00
20013;BME280;10167;42.852;23.042;2023-04-26T02:00:34;93910.78;;;8.66;100.00
20013;BME280;10167;42.852;23.042;2023-04-26T02:03:04;93906.63;;;8.75;100.00
20013;BME280;10167;42.852;23.042;2023-04-26T02:05:33;93903.84;;;8.87;100.00
20013;BME280;10167;42.852;23.042;2023-04-26T02:08:05;93899.94;;;8.94;100.00
20013;BME280;10167;42.852;23.042;2023-04-26T02:10:35;93897.38;;;8.99;100.00
20013;BME280;10167;42.852;23.042;2023-04-26T02:13:07;93896.88;;;9.02;100.00
20013;BME280;10167;42.852;23.042;2023-04-26T02:15:36;93887.88;;;9.03;100.00
20013;BME280;10167;42.852;23.042;2023-04-26T02:18:05;93877.84;;;9.00;100.00
20013;BME280;10167;42.852;23.042;2023-04-26T02:20:36;93887.00;;;8.93;100.00
20013;BME280;10167;42.852;23.042;2023-04-26T02:23:05;93888.44;;;9.05;100.00
20013;BME280;10167;42.852;23.042;2023-04-26T02:25:36;93894.66;;;8.94;100.00
20013;BME280;10167;42.852;23.042;2023-04-26T02:28:06;93898.00;;;8.85;100.00
20013;BME280;10167;42.852;23.042;2023-04-26T02:30:35;93898.34;;;8.93;100.00
20013;BME280;10167;42.852;23.042;2023-04-26T02:33:04;93898.00;;;8.85;100.00
20013;BME280;10167;42.852;23.042;2023-04-26T02:35:34;93911.53;;;8.88;100.00
20013;BME280;10167;42.852;23.042;2023-04-26T02:38:04;93916.88;;;8.98;100.00
20013;BME280;10167;42.852;23.042;2023-04-26T02:40:33;93920.09;;;9.00;100.00
20013;BME280;10167;42.852;23.042;2023-04-26T02:43:04;93907.84;;;8.89;100.00
20013;BME280;10167;42.852;23.042;2023-04-26T02:45:33;93913.53;;;8.81;100.00
20013;BME280;10167;42.852;23.042;2023-04-26T02:48:03;93912.63;;;8.65;100.00
20013;BME280;10167;42.852;23.042;2023-04-26T02:50:33;93919.25;;;8.68;100.00
20013;BME280;10167;42.852;23.042;2023-04-26T02:53:05;93906.53;;;8.65;100.00
20013;BME280;10167;42.852;23.042;2023-04-26T02:55:35;93903.09;;;8.64;100.00
20013;BME280;10167;42.852;23.042;2023-04-26T02:58:06;93901.56;;;8.68;100.00
20013;BME280;10167;42.852;23.042;2023-04-26T03:00:36;93891.81;;;8.69;100.00
20013;BME280;10167;42.852;23.042;2023-04-26T03:03:05;93889.91;;;8.64;100.00
20013;BME280;10167;42.852;23.042;2023-04-26T03:05:34;93880.16;;;8.65;100.00
20013;BME280;10167;42.852;23.042;2023-04-26T03:08:04;93871.97;;;8.66;100.00
20013;BME280;10167;42.852;23.042;2023-04-26T03:10:33;93864.16;;;8.77;100.00
20013;BME280;10167;42.852;23.042;2023-04-26T03:13:03;93869.69;;;8.75;100.00
20013;BME280;10167;42.852;23.042;2023-04-26T03:15:34;93879.94;;;8.71;100.00
20013;BME280;10167;42.852;23.042;2023-04-26T03:18:03;93879.53;;;8.58;100.00
20013;BME280;10167;42.852;23.042;2023-04-26T03:20:32;93884.06;;;8.62;100.00
20013;BME280;10167;42.852;23.042;2023-04-26T03:23:02;93885.59;;;8.58;100.00
20013;BME280;10167;42.852;23.042;2023-04-26T03:25:32;93885.00;;;8.51;100.00
20013;BME280;10167;42.852;23.042;2023-04-26T03:28:01;93894.22;;;8.49;100.00
20013;BME280;10167;42.852;23.042;2023-04-26T03:30:31;93887.63;;;8.46;100.00
20013;BME280;10167;42.852;23.042;2023-04-26T03:33:02;93895.31;;;8.53;100.00
20013;BME280;10167;42.852;23.042;2023-04-26T03:35:32;93895.25;;;8.48;100.00
20013;BME280;10167;42.852;23.042;2023-04-26T03:38:01;93898.03;;;8.36;100.00
20013;BME280;10167;42.852;23.042;2023-04-26T03:40:31;93905.56;;;8.27;100.00
20013;BME280;10167;42.852;23.042;2023-04-26T03:43:01;93904.63;;;8.17;100.00
20013;BME280;10167;42.852;23.042;2023-04-26T03:45:30;93909.06;;;8.11;100.00
20013;BME280;10167;42.852;23.042;2023-04-26T03:47:59;93914.03;;;8.08;100.00
20013;BME280;10167;42.852;23.042;2023-04-26T03:50:30;93913.47;;;8.06;100.00
20013;BME280;10167;42.852;23.042;2023-04-26T03:53:00;93926.84;;;7.99;100.00
20013;BME280;10167;42.852;23.042;2023-04-26T03:55:29;93926.72;;;7.89;100.00
20013;BME280;10167;42.852;23.042;2023-04-26T03:57:59;93924.13;;;7.94;100.00
20013;BME280;10167;42.852;23.042;2023-04-26T04:00:29;93931.72;;;7.90;100.00
20013;BME280;10167;42.852;23.042;2023-04-26T04:02:59;93936.31;;;7.78;100.00
20013;BME280;10167;42.852;23.042;2023-04-26T04:05:30;93934.97;;;7.76;100.00
20013;BME280;10167;42.852;23.042;2023-04-26T04:07:59;93931.94;;;7.67;100.00
20013;BME280;10167;42.852;23.042;2023-04-26T04:10:29;93938.50;;;7.64;100.00
20013;BME280;10167;42.852;23.042;2023-04-26T04:12:58;93935.91;;;7.70;100.00
20013;BME280;10167;42.852;23.042;2023-04-26T04:15:29;93938.31;;;7.71;100.00
20013;BME280;10167;42.852;23.042;2023-04-26T04:17:58;93936.66;;;7.65;100.00
20013;BME280;10167;42.852;23.042;2023-04-26T04:20:28;93940.38;;;7.69;100.00
20013;BME280;10167;42.852;23.042;2023-04-26T04:22:58;93929.53;;;7.65;100.00
20013;BME280;10167;42.852;23.042;2023-04-26T04:25:28;93933.34;;;7.75;100.00
20013;BME280;10167;42.852;23.042;2023-04-26T04:28:01;93926.25;;;7.75;100.00
20013;BME280;10167;42.852;23.042;2023-04-26T04:30:31;93926.06;;;7.82;100.00
20013;BME280;10167;42.852;23.042;2023-04-26T04:33:01;93929.34;;;7.89;100.00
20013;BME280;10167;42.852;23.042;2023-04-26T04:35:33;93935.72;;;7.93;100.00
20013;BME280;10167;42.852;23.042;2023-04-26T04:38:06;93933.44;;;8.01;100.00
20013;BME280;10167;42.852;23.042;2023-04-26T04:40:36;93939.03;;;8.05;100.00
20013;BME280;10167;42.852;23.042;2023-04-26T04:43:05;93940.94;;;8.10;100.00
20013;BME280;10167;42.852;23.042;2023-04-26T04:45:34;93937.31;;;8.16;100.00
20013;BME280;10167;42.852;23.042;2023-04-26T04:48:05;93938.75;;;8.23;100.00
20013;BME280;10167;42.852;23.042;2023-04-26T04:50:36;93941.41;;;8.23;100.00
20013;BME280;10167;42.852;23.042;2023-04-26T04:53:07;93939.69;;;8.34;100.00
20013;BME280;10167;42.852;23.042;2023-04-26T04:55:36;93944.47;;;8.37;100.00
20013;BME280;10167;42.852;23.042;2023-04-26T04:58:07;93944.22;;;8.38;100.00
20013;BME280;10167;42.852;23.042;2023-04-26T05:00:37;93941.41;;;8.45;100.00
20013;BME280;10167;42.852;23.042;2023-04-26T05:03:20;93946.97;;;8.49;100.00
20013;BME280;10167;42.852;23.042;2023-04-26T05:05:50;93954.34;;;8.47;100.00
20013;BME280;10167;42.852;23.042;2023-04-26T05:08:22;93942.09;;;8.57;100.00
20013;BME280;10167;42.852;23.042;2023-04-26T05:10:51;93945.06;;;8.66;100.00
20013;BME280;10167;42.852;23.042;2023-04-26T05:13:22;93947.03;;;8.76;100.00
20013;BME280;10167;42.852;23.042;2023-04-26T05:15:51;93942.94;;;8.90;100.00
20013;BME280;10167;42.852;23.042;2023-04-26T05:18:21;93955.59;;;8.88;100.00
20013;BME280;10167;42.852;23.042;2023-04-26T05:20:50;93950.91;;;8.95;100.00
20013;BME280;10167;42.852;23.042;2023-04-26T05:23:19;93955.03;;;8.86;100.00
20013;BME280;10167;42.852;23.042;2023-04-26T05:25:50;93954.84;;;8.92;100.00
20013;BME280;10167;42.852;23.042;2023-04-26T05:28:54;93958.09;;;8.99;100.00
20013;BME280;10167;42.852;23.042;2023-04-26T05:31:30;93956.28;;;9.05;100.00
20013;BME280;10167;42.852;23.042;2023-04-26T05:34:07;93954.91;;;8.97;100.00
20013;BME280;10167;42.852;23.042;2023-04-26T05:36:38;93958.19;;;9.09;100.00
20013;BME280;10167;42.852;23.042;2023-04-26T05:39:07;93952.84;;;9.31;100.00
20013;BME280;10167;42.852;23.042;2023-04-26T05:41:38;93949.53;;;9.46;100.00
20013;BME280;10167;42.852;23.042;2023-04-26T05:44:08;93960.13;;;9.51;100.00
20013;BME280;10167;42.852;23.042;2023-04-26T05:46:37;93956.31;;;9.69;100.00
20013;BME280;10167;42.852;23.042;2023-04-26T05:49:08;93968.56;;;9.85;100.00
20013;BME280;10167;42.852;23.042;2023-04-26T05:51:37;93970.00;;;10.03;100.00
20013;BME280;10167;42.852;23.042;2023-04-26T05:54:07;93978.00;;;10.13;100.00
20013;BME280;10167;42.852;23.042;2023-04-26T05:56:39;93983.31;;;10.13;100.00
20013;BME280;10167;42.852;23.042;2023-04-26T05:59:09;93995.19;;;10.10;100.00
20013;BME280;10167;42.852;23.042;2023-04-26T06:01:39;93987.28;;;10.15;100.00
20013;BME280;10167;42.852;23.042;2023-04-26T06:04:08;93986.31;;;10.27;100.00
20013;BME280;10167;42.852;23.042;2023-04-26T06:06:49;93992.41;;;9.95;100.00
20013;BME280;10167;42.852;23.042;2023-04-26T06:09:20;94000.22;;;10.17;100.00
20013;BME280;10167;42.852;23.042;2023-04-26T06:11:51;93993.72;;;10.25;100.00
20013;BME280;10167;42.852;23.042;2023-04-26T06:14:20;93993.91;;;10.18;100.00
20013;BME280;10167;42.852;23.042;2023-04-26T06:17:02;93995.06;;;10.32;100.00
20013;BME280;10167;42.852;23.042;2023-04-26T06:19:32;93991.13;;;10.40;100.00
20013;BME280;10167;42.852;23.042;2023-04-26T06:22:01;94000.19;;;10.54;100.00
20013;BME280;10167;42.852;23.042;2023-04-26T06:24:31;94002.81;;;10.44;100.00
20013;BME280;10167;42.852;23.042;2023-04-26T06:27:01;94002.63;;;10.66;100.00
20013;BME280;10167;42.852;23.042;2023-04-26T06:29:31;93994.16;;;10.59;100.00
20013;BME280;10167;42.852;23.042;2023-04-26T06:32:01;93994.72;;;10.76;100.00
20013;BME280;10167;42.852;23.042;2023-04-26T06:34:32;93998.50;;;10.95;100.00
20013;BME280;10167;42.852;23.042;2023-04-26T06:37:01;94000.94;;;11.12;100.00
20013;BME280;10167;42.852;23.042;2023-04-26T06:39:32;93994.06;;;11.16;100.00
20013;BME280;10167;42.852;23.042;2023-04-26T06:42:03;93999.63;;;11.19;100.00
20013;BME280;10167;42.852;23.042;2023-04-26T06:44:59;93996.44;;;11.17;100.00
20013;BME280;10167;42.852;23.042;2023-04-26T06:47:32;93998.28;;;11.02;100.00
20013;BME280;10167;42.852;23.042;2023-04-26T06:50:02;94003.84;;;11.10;100.00
20013;BME280;10167;42.852;23.042;2023-04-26T06:52:32;94011.25;;;11.03;100.00
20013;BME280;10167;42.852;23.042;2023-04-26T06:55:02;94012.31;;;11.07;100.00
20013;BME280;10167;42.852;23.042;2023-04-26T06:57:33;94019.50;;;11.12;100.00
20013;BME280;10167;42.852;23.042;2023-04-26T07:00:03;94005.97;;;11.18;100.00
20013;BME280;10167;42.852;23.042;2023-04-26T07:02:34;94010.81;;;11.37;100.00
20013;BME280;10167;42.852;23.042;2023-04-26T07:05:05;94014.50;;;11.41;100.00
20013;BME280;10167;42.852;23.042;2023-04-26T07:07:34;94014.03;;;11.69;100.00
20013;BME280;10167;42.852;23.042;2023-04-26T07:10:04;94023.59;;;11.80;100.00
20013;BME280;10167;42.852;23.042;2023-04-26T07:12:35;94024.13;;;12.03;100.00
20013;BME280;10167;42.852;23.042;2023-04-26T07:15:05;94027.06;;;12.06;100.00
20013;BME280;10167;42.852;23.042;2023-04-26T07:17:34;94024.66;;;11.99;100.00
20013;BME280;10167;42.852;23.042;2023-04-26T07:20:04;94020.94;;;12.00;100.00
20013;BME280;10167;42.852;23.042;2023-04-26T07:22:34;94034.47;;;11.99;100.00
20013;BME280;10167;42.852;23.042;2023-04-26T07:25:04;94036.59;;;12.12;100.00
20013;BME280;10167;42.852;23.042;2023-04-26T07:27:34;94035.78;;;12.12;100.00
20013;BME280;10167;42.852;23.042;2023-04-26T07:30:05;94020.66;;;12.22;100.00
20013;BME280;10167;42.852;23.042;2023-04-26T07:32:34;94032.03;;;12.33;100.00
20013;BME280;10167;42.852;23.042;2023-04-26T07:35:06;94024.09;;;12.33;100.00
20013;BME280;10167;42.852;23.042;2023-04-26T07:37:37;94032.31;;;12.21;100.00
20013;BME280;10167;42.852;23.042;2023-04-26T07:40:07;94028.03;;;12.46;100.00
20013;BME280;10167;42.852;23.042;2023-04-26T07:42:38;94020.53;;;12.68;100.00
20013;BME280;10167;42.852;23.042;2023-04-26T07:45:09;94026.63;;;12.79;100.00
20013;BME280;10167;42.852;23.042;2023-04-26T07:47:40;94018.06;;;12.92;100.00
20013;BME280;10167;42.852;23.042;2023-04-26T07:50:10;94021.25;;;12.89;100.00
20013;BME280;10167;42.852;23.042;2023-04-26T07:52:39;94021.22;;;12.99;100.00
20013;BME280;10167;42.852;23.042;2023-04-26T07:55:09;94014.97;;;13.34;100.00
20013;BME280;10167;42.852;23.042;2023-04-26T07:57:40;94019.94;;;13.51;100.00
20013;BME280;10167;42.852;23.042;2023-04-26T08:00:10;94013.41;;;13.72;100.00
20013;BME280;10167;42.852;23.042;2023-04-26T08:02:40;94022.78;;;13.98;100.00
20013;BME280;10167;42.852;23.042;2023-04-26T08:05:12;94025.28;;;13.85;100.00
20013;BME280;10167;42.852;23.042;2023-04-26T08:07:42;94032.78;;;13.77;100.00
20013;BME280;10167;42.852;23.042;2023-04-26T08:10:11;94030.44;;;13.71;100.00
20013;BME280;10167;42.852;23.042;2023-04-26T08:12:42;94016.59;;;13.69;100.00
20013;BME280;10167;42.852;23.042;2023-04-26T08:15:11;94018.47;;;13.68;100.00
20013;BME280;10167;42.852;23.042;2023-04-26T08:17:40;94020.59;;;13.66;100.00
20013;BME280;10167;42.852;23.042;2023-04-26T08:20:10;94022.44;;;13.71;100.00
20013;BME280;10167;42.852;23.042;2023-04-26T08:22:39;94025.38;;;13.69;100.00
20013;BME280;10167;42.852;23.042;2023-04-26T08:25:09;94032.66;;;13.98;100.00
20013;BME280;10167;42.852;23.042;2023-04-26T08:27:38;94036.91;;;14.28;100.00
20013;BME280;10167;42.852;23.042;2023-04-26T08:30:10;94030.06;;;14.50;100.00
20013;BME280;10167;42.852;23.042;2023-04-26T08:32:39;94036.22;;;14.75;100.00
20013;BME280;10167;42.852;23.042;2023-04-26T09:03:59;94047.19;;;14.68;100.00
20013;BME280;10167;42.852;23.042;2023-04-26T09:06:29;94047.66;;;14.17;100.00
20013;BME280;10167;42.852;23.042;2023-04-26T09:09:00;94043.00;;;13.99;100.00
20013;BME280;10167;42.852;23.042;2023-04-26T09:11:31;94049.88;;;14.05;100.00
20013;BME280;10167;42.852;23.042;2023-04-26T09:14:00;94048.97;;;14.20;100.00
20013;BME280;10167;42.852;23.042;2023-04-26T09:16:36;94052.25;;;14.41;100.00
20013;BME280;10167;42.852;23.042;2023-04-26T09:19:06;94041.06;;;14.92;100.00
20013;BME280;10167;42.852;23.042;2023-04-26T09:21:41;94047.84;;;15.08;100.00
20013;BME280;10167;42.852;23.042;2023-04-26T09:24:11;94057.94;;;14.87;100.00
20013;BME280;10167;42.852;23.042;2023-04-26T09:26:40;94057.59;;;14.94;100.00
20013;BME280;10167;42.852;23.042;2023-04-26T09:29:14;94062.41;;;14.92;100.00
20013;BME280;10167;42.852;23.042;2023-04-26T09:31:45;94048.78;;;15.17;100.00
20013;BME280;10167;42.852;23.042;2023-04-26T09:34:17;94046.06;;;15.22;100.00
20013;BME280;10167;42.852;23.042;2023-04-26T09:36:50;94047.41;;;15.19;100.00
20013;BME280;10167;42.852;23.042;2023-04-26T09:39:32;94047.28;;;14.87;98.25
20013;BME280;10167;42.852;23.042;2023-04-26T09:42:02;94047.03;;;14.83;99.55
20013;BME280;10167;42.852;23.042;2023-04-26T09:44:32;94048.56;;;14.66;99.33
20013;BME280;10167;42.852;23.042;2023-04-26T09:47:03;94059.19;;;14.42;98.89
20013;BME280;10167;42.852;23.042;2023-04-26T09:49:44;94049.38;;;14.66;100.00
20013;BME280;10167;42.852;23.042;2023-04-26T09:52:16;94052.50;;;14.68;100.00
20013;BME280;10167;42.852;23.042;2023-04-26T09:54:47;94048.66;;;14.79;96.99
20013;BME280;10167;42.852;23.042;2023-04-26T09:57:18;94045.97;;;15.08;98.32
20013;BME280;10167;42.852;23.042;2023-04-26T09:59:49;94041.47;;;15.46;100.00
20013;BME280;10167;42.852;23.042;2023-04-26T10:02:22;94044.34;;;15.31;96.28
20013;BME280;10167;42.852;23.042;2023-04-26T10:04:54;94048.38;;;15.29;94.25
20013;BME280;10167;42.852;23.042;2023-04-26T10:07:27;94052.88;;;14.85;94.73
20013;BME280;10167;42.852;23.042;2023-04-26T10:09:58;94043.13;;;14.76;97.15
20013;BME280;10167;42.852;23.042;2023-04-26T10:12:30;94041.03;;;14.73;99.82
20013;BME280;10167;42.852;23.042;2023-04-26T10:15:00;94042.63;;;14.98;99.22
20013;BME280;10167;42.852;23.042;2023-04-26T10:17:31;94038.81;;;15.04;97.62
20013;BME280;10167;42.852;23.042;2023-04-26T10:20:04;94042.34;;;14.99;96.88
20013;BME280;10167;42.852;23.042;2023-04-26T10:22:42;94033.97;;;15.30;95.71
20013;BME280;10167;42.852;23.042;2023-04-26T10:25:12;94030.03;;;15.83;95.77
20013;BME280;10167;42.852;23.042;2023-04-26T10:27:48;94038.84;;;16.03;96.32
20013;BME280;10167;42.852;23.042;2023-04-26T10:30:20;94040.84;;;16.11;92.73
20013;BME280;10167;42.852;23.042;2023-04-26T10:33:14;94038.69;;;15.94;94.46
20013;BME280;10167;42.852;23.042;2023-04-26T10:36:06;94043.00;;;15.71;93.13
20013;BME280;10167;42.852;23.042;2023-04-26T10:38:40;94042.16;;;15.57;91.18
20013;BME280;10167;42.852;23.042;2023-04-26T10:41:34;94042.00;;;15.86;92.81
20013;BME280;10167;42.852;23.042;2023-04-26T10:44:39;94035.59;;;16.19;91.74
20013;BME280;10167;42.852;23.042;2023-04-26T10:47:26;94037.59;;;16.27;91.04
20013;BME280;10167;42.852;23.042;2023-04-26T10:50:03;94025.66;;;16.39;91.42
20013;BME280;10167;42.852;23.042;2023-04-26T10:52:37;94027.66;;;16.01;93.86
20013;BME280;10167;42.852;23.042;2023-04-26T10:55:09;94034.06;;;16.00;93.40
20013;BME280;10167;42.852;23.042;2023-04-26T10:57:49;94034.00;;;15.86;91.50
20013;BME280;10167;42.852;23.042;2023-04-26T11:00:27;94032.72;;;15.65;93.29
20013;BME280;10167;42.852;23.042;2023-04-26T11:03:05;94034.31;;;15.66;90.85
20013;BME280;10167;42.852;23.042;2023-04-26T11:05:47;94033.56;;;15.60;92.50
20013;BME280;10167;42.852;23.042;2023-04-26T11:08:23;94029.66;;;15.52;93.90
20013;BME280;10167;42.852;23.042;2023-04-26T11:11:08;94019.16;;;15.18;93.99
20013;BME280;10167;42.852;23.042;2023-04-26T11:13:42;94023.88;;;15.03;94.36
20013;BME280;10167;42.852;23.042;2023-04-26T11:16:13;94031.97;;;15.16;91.90
20013;BME280;10167;42.852;23.042;2023-04-26T11:18:44;94026.16;;;15.57;92.36
20013;BME280;10167;42.852;23.042;2023-04-26T11:21:14;94026.69;;;15.91;92.86
20013;BME280;10167;42.852;23.042;2023-04-26T11:23:53;94027.75;;;16.09;91.29
20013;BME280;10167;42.852;23.042;2023-04-26T11:26:31;94028.41;;;16.20;92.72
20013;BME280;10167;42.852;23.042;2023-04-26T11:29:01;94037.06;;;16.12;90.16
20013;BME280;10167;42.852;23.042;2023-04-26T11:31:30;94031.28;;;16.05;92.74
20013;BME280;10167;42.852;23.042;2023-04-26T11:34:03;94038.50;;;16.04;91.52
20013;BME280;10167;42.852;23.042;2023-04-26T11:36:35;94042.19;;;16.41;89.07
20013;BME280;10167;42.852;23.042;2023-04-26T11:39:06;94038.06;;;16.48;89.34
20013;BME280;10167;42.852;23.042;2023-04-26T11:41:35;94038.97;;;16.57;90.18
20013;BME280;10167;42.852;23.042;2023-04-26T11:44:05;94039.63;;;16.36;87.02
20013;BME280;10167;42.852;23.042;2023-04-26T11:46:34;94038.16;;;16.43;87.83
20013;BME280;10167;42.852;23.042;2023-04-26T11:49:06;94045.16;;;16.85;87.61
20013;BME280;10167;42.852;23.042;2023-04-26T11:51:36;94042.47;;;17.40;88.00
20013;BME280;10167;42.852;23.042;2023-04-26T11:54:06;94033.75;;;17.98;86.20
20013;BME280;10167;42.852;23.042;2023-04-26T11:56:35;94042.03;;;18.32;85.23
20013;BME280;10167;42.852;23.042;2023-04-26T11:59:06;94037.66;;;18.36;83.33
20013;BME280;10167;42.852;23.042;2023-04-26T12:01:35;94038.16;;;18.38;84.60
20013;BME280;10167;42.852;23.042;2023-04-26T12:04:08;94039.34;;;18.55;83.77
20013;BME280;10167;42.852;23.042;2023-04-26T12:06:41;94045.78;;;18.76;84.24
20013;BME280;10167;42.852;23.042;2023-04-26T12:09:13;94034.84;;;18.19;85.97
20013;BME280;10167;42.852;23.042;2023-04-26T12:11:52;94038.78;;;17.77;86.25
20013;BME280;10167;42.852;23.042;2023-04-26T12:14:30;94042.31;;;17.23;85.15
20013;BME280;10167;42.852;23.042;2023-04-26T12:16:59;94041.31;;;17.19;85.03
20013;BME280;10167;42.852;23.042;2023-04-26T12:19:32;94046.38;;;17.34;84.41
20013;BME280;10167;42.852;23.042;2023-04-26T12:22:01;94038.63;;;17.19;86.50
20013;BME280;10167;42.852;23.042;2023-04-26T12:24:32;94029.72;;;16.96;87.66
20013;BME280;10167;42.852;23.042;2023-04-26T12:27:04;94032.59;;;16.99;91.61
20013;BME280;10167;42.852;23.042;2023-04-26T12:29:34;94036.06;;;16.86;89.66
20013;BME280;10167;42.852;23.042;2023-04-26T12:32:04;94035.88;;;16.96;89.03
20013;BME280;10167;42.852;23.042;2023-04-26T12:34:33;94035.97;;;17.19;87.83
20013;BME280;10167;42.852;23.042;2023-04-26T12:37:02;94043.59;;;16.84;88.87
20013;BME280;10167;42.852;23.042;2023-04-26T12:39:33;94040.59;;;17.40;87.82
20013;BME280;10167;42.852;23.042;2023-04-26T12:42:03;94047.66;;;16.95;88.32
20013;BME280;10167;42.852;23.042;2023-04-26T12:44:33;94028.72;;;17.19;89.32
20013;BME280;10167;42.852;23.042;2023-04-26T12:47:03;94040.28;;;17.69;87.86
20013;BME280;10167;42.852;23.042;2023-04-26T12:49:32;94037.19;;;17.62;86.10
20013;BME280;10167;42.852;23.042;2023-04-26T12:52:01;94041.06;;;17.56;86.99
20013;BME280;10167;42.852;23.042;2023-04-26T12:54:31;94047.09;;;17.75;84.17
20013;BME280;10167;42.852;23.042;2023-04-26T12:57:01;94040.09;;;17.52;85.64
20013;BME280;10167;42.852;23.042;2023-04-26T12:59:31;94041.78;;;17.48;84.95
20013;BME280;10167;42.852;23.042;2023-04-26T13:02:00;94042.00;;;16.69;86.61
20013;BME280;10167;42.852;23.042;2023-04-26T13:04:30;94027.84;;;16.69;90.93
20013;BME280;10167;42.852;23.042;2023-04-26T13:06:59;94033.28;;;16.64;92.09
20013;BME280;10167;42.852;23.042;2023-04-26T13:09:29;94024.47;;;16.77;91.36
20013;BME280;10167;42.852;23.042;2023-04-26T13:11:58;94026.44;;;16.85;91.45
20013;BME280;10167;42.852;23.042;2023-04-26T13:14:29;94035.00;;;16.55;93.43
20013;BME280;10167;42.852;23.042;2023-04-26T13:16:58;94031.13;;;15.64;90.59
20013;BME280;10167;42.852;23.042;2023-04-26T13:19:27;94040.25;;;15.15;94.35
20013;BME280;10167;42.852;23.042;2023-04-26T13:21:57;94037.06;;;15.37;92.80
20013;BME280;10167;42.852;23.042;2023-04-26T13:24:26;94043.56;;;15.49;93.27
20013;BME280;10167;42.852;23.042;2023-04-26T13:26:55;94045.13;;;15.32;93.15
20013;BME280;10167;42.852;23.042;2023-04-26T13:29:24;94057.84;;;15.16;92.68
20013;BME280;10167;42.852;23.042;2023-04-26T13:31:55;94055.72;;;14.94;94.68
20013;BME280;10167;42.852;23.042;2023-04-26T13:34:26;94060.19;;;14.75;95.92
20013;BME280;10167;42.852;23.042;2023-04-26T13:36:56;94062.69;;;14.90;96.50